createdAt,value
2023-03-17T00:01:55.075Z,100775.16
2023-03-17T00:04:24.583Z,100766.53
2023-03-17T00:06:52.429Z,100769.19
2023-03-17T00:09:21.082Z,100770.88
2023-03-17T00:11:48.704Z,100781.19
2023-03-17T00:14:16.055Z,100772.06
2023-03-17T00:16:45.935Z,100770.75
2023-03-17T00:19:23.525Z,100776.19
2023-03-17T00:21:50.855Z,100780.00
2023-03-17T00:24:18.183Z,100778.53
2023-03-17T00:26:45.384Z,100776.09
2023-03-17T00:29:12.583Z,100770.28
2023-03-17T00:31:40.103Z,100773.31
2023-03-17T00:34:11.478Z,100778.22
2023-03-17T00:36:38.683Z,100776.47
2023-03-17T00:41:41.467Z,100767.34
2023-03-17T00:44:08.724Z,100773.00
2023-03-17T00:46:37.103Z,100775.66
2023-03-17T00:49:12.482Z,100780.16
2023-03-17T00:51:39.763Z,100771.69
2023-03-17T00:54:07.070Z,100781.50
2023-03-17T00:56:34.316Z,100784.56
2023-03-17T00:59:01.753Z,100780.31
2023-03-17T01:01:29.312Z,100788.09
2023-03-17T01:03:56.697Z,100779.09
2023-03-17T01:06:23.932Z,100789.13
2023-03-17T01:08:51.404Z,100787.00
2023-03-17T01:11:20.064Z,100796.44
2023-03-17T01:13:47.752Z,100790.25
2023-03-17T01:16:15.534Z,100799.91
2023-03-17T01:18:43.193Z,100801.50
2023-03-17T01:21:10.546Z,100805.34
2023-03-17T01:23:37.829Z,100802.91
2023-03-17T01:26:06.002Z,100800.84
2023-03-17T01:28:34.259Z,100797.94
2023-03-17T01:31:01.973Z,100802.00
2023-03-17T01:33:29.306Z,100801.13
2023-03-17T01:35:56.728Z,100803.44
2023-03-17T01:38:24.001Z,100802.22
2023-03-17T01:40:52.531Z,100804.06
2023-03-17T01:43:37.614Z,100809.94
2023-03-17T01:46:35.127Z,100809.63
2023-03-17T01:49:21.073Z,100808.28
2023-03-17T01:51:57.034Z,100821.75
2023-03-17T01:54:48.237Z,100817.72
2023-03-17T01:57:20.708Z,100832.25
2023-03-17T01:59:58.545Z,100828.31
2023-03-17T02:02:30.838Z,100825.88
2023-03-17T02:04:58.850Z,100833.28
2023-03-17T02:07:28.071Z,100837.56
2023-03-17T02:09:56.704Z,100825.19
2023-03-17T02:12:25.766Z,100836.13
2023-03-17T02:14:53.173Z,100829.19
2023-03-17T02:17:22.360Z,100833.47
2023-03-17T02:19:50.131Z,100844.97
2023-03-17T02:22:19.639Z,100844.06
2023-03-17T02:24:54.546Z,100848.84
2023-03-17T02:27:37.682Z,100855.72
2023-03-17T02:30:07.218Z,100850.09
2023-03-17T02:32:36.164Z,100851.88
2023-03-17T02:35:04.346Z,100857.63
2023-03-17T02:37:31.684Z,100857.09
2023-03-17T02:39:58.975Z,100855.56
2023-03-17T02:42:27.134Z,100864.66
2023-03-17T02:44:54.495Z,100869.03
2023-03-17T02:47:21.777Z,100867.03
2023-03-17T02:49:49.298Z,100867.91
2023-03-17T02:52:16.835Z,100870.25
2023-03-17T02:54:43.956Z,100865.97
2023-03-17T02:57:11.291Z,100866.28
2023-03-17T02:59:38.521Z,100873.50
2023-03-17T03:02:05.819Z,100869.50
2023-03-17T03:04:33.061Z,100866.16
2023-03-17T03:07:00.487Z,100873.09
2023-03-17T03:09:27.748Z,100871.69
2023-03-17T03:11:54.998Z,100879.91
2023-03-17T03:14:23.119Z,100883.69
2023-03-17T03:16:50.318Z,100879.09
2023-03-17T03:19:17.804Z,100880.13
2023-03-17T03:21:45.152Z,100881.75
2023-03-17T03:24:12.606Z,100885.88
2023-03-17T03:26:40.125Z,100881.63
2023-03-17T03:29:07.605Z,100883.53
2023-03-17T03:31:34.924Z,100889.00
2023-03-17T03:34:02.486Z,100878.16
2023-03-17T03:36:30.834Z,100885.88
2023-03-17T03:38:58.079Z,100882.13
2023-03-17T03:41:25.298Z,100876.75
2023-03-17T03:43:52.760Z,100879.28
2023-03-17T03:46:19.954Z,100884.41
2023-03-17T03:48:47.134Z,100885.47
2023-03-17T03:51:14.379Z,100880.81
2023-03-17T03:53:41.615Z,100884.00
2023-03-17T03:56:08.906Z,100883.97
2023-03-17T03:58:36.121Z,100886.78
2023-03-17T04:01:07.963Z,100884.88
2023-03-17T04:03:37.230Z,100887.44
2023-03-17T04:06:04.766Z,100892.38
2023-03-17T04:08:32.067Z,100898.13
2023-03-17T04:10:59.547Z,100903.41
2023-03-17T04:13:26.756Z,100901.13
2023-03-17T04:15:54.277Z,100902.91
2023-03-17T04:18:21.819Z,100916.69
2023-03-17T04:20:49.073Z,100915.59
2023-03-17T04:23:16.274Z,100913.88
2023-03-17T04:25:43.462Z,100922.03
2023-03-17T04:28:11.132Z,100918.72
2023-03-17T04:30:38.395Z,100927.63
2023-03-17T04:33:05.630Z,100933.72
2023-03-17T04:35:36.017Z,100945.63
2023-03-17T04:38:03.968Z,100940.59
2023-03-17T04:40:33.032Z,100946.03
2023-03-17T04:43:03.323Z,100947.06
2023-03-17T04:45:31.087Z,100942.75
2023-03-17T04:47:58.756Z,100947.03
2023-03-17T04:50:33.575Z,100950.00
2023-03-17T04:53:01.965Z,100956.94
2023-03-17T04:55:29.795Z,100946.72
2023-03-17T04:57:58.262Z,100957.75
2023-03-17T05:00:26.475Z,100964.19
2023-03-17T05:02:54.585Z,100960.34
2023-03-17T05:05:22.423Z,100963.34
2023-03-17T05:07:50.114Z,100964.13
2023-03-17T05:10:18.053Z,100972.44
2023-03-17T05:12:45.759Z,100971.16
2023-03-17T05:15:13.618Z,100977.84
2023-03-17T05:17:44.027Z,100975.97
2023-03-17T05:20:11.758Z,100981.84
2023-03-17T05:22:38.952Z,100979.75
2023-03-17T05:25:06.388Z,100985.53
2023-03-17T05:27:37.099Z,100987.91
2023-03-17T05:30:04.816Z,100996.56
2023-03-17T05:32:32.146Z,101004.75
2023-03-17T05:34:59.314Z,101005.97
2023-03-17T05:37:26.660Z,101009.75
2023-03-17T05:39:54.133Z,101011.22
2023-03-17T05:42:21.518Z,101014.38
2023-03-17T05:44:48.788Z,101013.06
2023-03-17T05:47:15.924Z,101014.25
2023-03-17T05:49:43.196Z,101016.19
2023-03-17T05:52:10.334Z,101017.13
2023-03-17T05:54:37.505Z,101014.47
2023-03-17T05:57:04.686Z,101019.13
2023-03-17T05:59:31.862Z,101020.44
2023-03-17T06:01:59.096Z,101021.63
2023-03-17T06:04:26.934Z,101016.06
2023-03-17T06:06:54.543Z,101016.63
2023-03-17T06:09:22.149Z,101014.34
2023-03-17T06:11:49.432Z,101025.88
2023-03-17T06:14:16.851Z,101033.94
2023-03-17T06:16:44.007Z,101029.38
2023-03-17T06:19:11.198Z,101033.78
2023-03-17T06:21:38.447Z,101036.03
2023-03-17T06:24:06.068Z,101035.91
2023-03-17T06:26:33.309Z,101043.13
2023-03-17T06:29:00.616Z,101042.19
2023-03-17T06:31:27.910Z,101043.72
2023-03-17T06:33:55.145Z,101040.78
2023-03-17T06:36:22.351Z,101043.81
2023-03-17T06:38:49.753Z,101042.03
2023-03-17T06:41:17.032Z,101045.97
2023-03-17T06:43:44.561Z,101038.34
2023-03-17T06:46:11.882Z,101033.47
2023-03-17T06:48:39.516Z,101043.81
2023-03-17T06:51:06.800Z,101038.50
2023-03-17T06:53:34.042Z,101044.88
2023-03-17T06:56:01.329Z,101050.03
2023-03-17T06:58:28.734Z,101050.59
2023-03-17T07:00:56.049Z,101054.53
2023-03-17T07:03:23.362Z,101058.81
2023-03-17T07:05:50.860Z,101048.84
2023-03-17T07:08:18.099Z,101061.78
2023-03-17T07:10:45.655Z,101053.91
2023-03-17T07:13:13.038Z,101055.06
2023-03-17T07:15:40.512Z,101046.56
2023-03-17T07:18:08.022Z,101052.44
2023-03-17T07:20:35.478Z,101055.56
2023-03-17T07:23:02.846Z,101053.75
2023-03-17T07:25:30.559Z,101050.16
2023-03-17T07:27:58.056Z,101054.59
2023-03-17T07:30:25.973Z,101061.63
2023-03-17T07:32:53.319Z,101063.31
2023-03-17T07:35:20.790Z,101067.97
2023-03-17T07:37:48.164Z,101072.97
2023-03-17T07:40:15.698Z,101065.31
2023-03-17T07:42:43.134Z,101071.78
2023-03-17T07:45:11.199Z,101073.56
2023-03-17T07:47:38.647Z,101073.06
2023-03-17T07:50:06.602Z,101075.50
2023-03-17T07:52:34.137Z,101073.66
2023-03-17T07:55:01.598Z,101077.59
2023-03-17T07:57:29.007Z,101089.97
2023-03-17T07:59:56.388Z,101086.13
2023-03-17T08:02:29.485Z,101094.09
2023-03-17T08:04:56.865Z,101088.03
2023-03-17T08:07:24.367Z,101091.41
2023-03-17T08:09:52.000Z,101091.16
2023-03-17T08:12:19.432Z,101097.91
2023-03-17T08:14:46.930Z,101099.53
2023-03-17T08:17:14.392Z,101101.22
2023-03-17T08:19:41.849Z,101102.03
2023-03-17T08:22:10.015Z,101100.28
2023-03-17T08:24:37.369Z,101105.34
2023-03-17T08:27:04.850Z,101111.84
2023-03-17T08:29:32.253Z,101116.75
2023-03-17T08:31:59.605Z,101114.75
2023-03-17T08:34:28.314Z,101117.69
2023-03-17T08:36:55.620Z,101116.53
2023-03-17T08:39:23.119Z,101120.16
2023-03-17T08:41:50.967Z,101119.78
2023-03-17T08:44:18.706Z,101117.97
2023-03-17T08:46:46.328Z,101120.06
2023-03-17T08:49:17.289Z,101128.25
2023-03-17T08:51:45.072Z,101126.56
2023-03-17T08:54:13.523Z,101130.38
2023-03-17T08:56:41.023Z,101124.63
2023-03-17T08:59:09.137Z,101132.13
2023-03-17T09:01:36.933Z,101131.09
2023-03-17T09:04:04.305Z,101128.25
2023-03-17T09:06:31.744Z,101128.03
2023-03-17T09:08:59.335Z,101132.53
2023-03-17T09:11:28.651Z,101127.41
2023-03-17T09:13:56.672Z,101130.75
2023-03-17T09:16:25.378Z,101133.94
2023-03-17T09:18:53.318Z,101125.03
2023-03-17T09:21:20.942Z,101126.22
2023-03-17T09:23:48.511Z,101130.34
2023-03-17T10:35:14.533Z,101101.28
2023-03-17T10:37:46.393Z,101094.66
2023-03-17T10:40:27.674Z,101091.19
2023-03-17T10:43:06.993Z,101097.09
2023-03-17T10:45:42.217Z,101085.28
2023-03-17T10:48:17.612Z,101093.09
2023-03-17T10:50:49.593Z,101088.38
2023-03-17T10:53:22.643Z,101087.03
2023-03-17T10:55:53.461Z,101081.94
2023-03-17T10:58:47.731Z,101086.63
2023-03-17T11:01:22.316Z,101085.00
2023-03-17T11:03:50.182Z,101083.66
2023-03-17T11:06:20.964Z,101071.94
2023-03-17T11:08:50.485Z,101071.47
2023-03-17T11:11:28.226Z,101064.56
2023-03-17T11:14:25.879Z,101073.53
2023-03-17T11:16:57.351Z,101065.38
2023-03-17T11:19:57.108Z,101059.56
2023-03-17T11:22:31.185Z,101057.97
2023-03-17T11:25:15.572Z,101047.78
2023-03-17T11:28:06.714Z,101049.50
2023-03-17T11:30:43.320Z,101044.22
2023-03-17T11:33:32.248Z,101038.78
2023-03-17T11:36:12.583Z,101046.38
2023-03-17T11:39:00.208Z,101040.63
2023-03-17T11:41:48.229Z,101038.16
2023-03-17T11:44:45.679Z,101038.63
2023-03-17T11:47:45.812Z,101030.09
2023-03-17T11:50:39.292Z,101029.41
2023-03-17T11:53:42.825Z,101023.31
2023-03-17T11:56:23.886Z,101036.22
2023-03-17T11:59:01.644Z,101023.13
2023-03-17T12:02:19.177Z,101025.78
2023-03-17T12:04:56.914Z,101020.19
2023-03-17T12:07:36.684Z,101017.44
2023-03-17T12:10:10.312Z,101022.88
2023-03-17T12:12:44.203Z,101022.53
2023-03-17T12:15:28.452Z,101019.63
2023-03-17T12:18:19.177Z,101016.72
2023-03-17T12:20:55.350Z,101020.34
2023-03-17T12:24:01.605Z,101012.38
2023-03-17T12:26:28.932Z,101009.84
2023-03-17T12:29:02.732Z,101004.75
2023-03-17T12:31:41.505Z,101007.03
2023-03-17T12:34:13.664Z,101011.13
2023-03-17T12:36:42.058Z,101003.16
2023-03-17T12:39:18.142Z,101002.06
2023-03-17T12:41:45.360Z,101002.31
2023-03-17T12:44:31.587Z,101003.53
2023-03-17T12:47:25.567Z,101003.13
2023-03-17T12:50:02.004Z,100995.88
2023-03-17T12:52:48.018Z,100991.97
2023-03-17T12:55:18.426Z,100992.69
2023-03-17T12:57:57.764Z,100990.81
2023-03-17T13:00:49.878Z,100994.22
2023-03-17T13:03:25.568Z,100993.75
2023-03-17T13:05:58.607Z,100990.22
2023-03-17T13:08:31.832Z,100992.31
2023-03-17T13:11:17.945Z,100995.88
2023-03-17T13:13:54.078Z,100993.38
2023-03-17T13:16:27.521Z,100991.06
2023-03-17T13:19:13.263Z,100986.88
2023-03-17T13:22:00.212Z,100988.41
2023-03-17T13:24:49.028Z,100982.59
2023-03-17T13:27:31.621Z,100976.63
2023-03-17T13:30:20.281Z,100973.69
2023-03-17T13:33:17.629Z,100974.13
2023-03-17T13:35:45.112Z,100974.66
2023-03-17T13:38:23.212Z,100965.25
2023-03-17T13:41:16.130Z,100969.06
2023-03-17T13:43:58.564Z,100969.38
2023-03-17T13:46:29.113Z,100960.19
2023-03-17T13:48:56.847Z,100969.13
2023-03-17T13:51:27.124Z,100963.78
2023-03-17T13:54:14.733Z,100964.59
2023-03-17T13:56:42.299Z,100953.66
2023-03-17T13:59:14.972Z,100958.94
2023-03-17T14:01:54.244Z,100960.94
2023-03-17T14:04:36.007Z,100960.72
2023-03-17T14:07:14.228Z,100948.81
2023-03-17T14:09:43.490Z,100942.28
2023-03-17T14:12:26.728Z,100950.28
2023-03-17T14:15:08.585Z,100949.69
2023-03-17T14:17:53.868Z,100941.28
2023-03-17T14:20:24.392Z,100942.97
2023-03-17T14:23:02.808Z,100946.25
2023-03-17T14:25:40.006Z,100942.53
2023-03-17T14:28:12.684Z,100938.13
2023-03-17T14:30:40.351Z,100946.22
2023-03-17T14:33:36.524Z,100946.97
2023-03-17T14:36:09.162Z,100947.47
2023-03-17T14:38:38.997Z,100950.97
2023-03-17T14:41:17.397Z,100945.34
2023-03-17T14:43:45.417Z,100942.91
2023-03-17T14:46:21.650Z,100944.06
2023-03-17T14:48:58.745Z,100937.34
2023-03-17T14:51:34.803Z,100933.78
2023-03-17T14:54:05.091Z,100936.00
2023-03-17T14:56:39.907Z,100933.97
2023-03-17T14:59:28.790Z,100942.41
2023-03-17T15:01:59.269Z,100933.78
2023-03-17T15:04:32.807Z,100928.59
2023-03-17T15:07:03.565Z,100941.94
2023-03-17T15:09:34.350Z,100923.97
2023-03-17T15:12:12.002Z,100928.69
2023-03-17T15:14:40.864Z,100933.06
2023-03-17T15:17:30.447Z,100930.88
2023-03-17T15:20:02.305Z,100939.59
2023-03-17T15:22:44.167Z,100926.09
2023-03-17T15:25:24.328Z,100930.63
2023-03-17T15:27:52.209Z,100923.31
2023-03-17T15:30:20.220Z,100928.03
2023-03-17T15:33:19.817Z,100926.00
2023-03-17T15:35:48.511Z,100921.63
2023-03-17T15:38:17.064Z,100913.66
2023-03-17T15:40:44.626Z,100915.03
2023-03-17T15:43:16.386Z,100907.78
2023-03-17T15:45:44.744Z,100910.97
2023-03-17T15:48:27.067Z,100916.16
2023-03-17T15:50:57.189Z,100905.41
2023-03-17T15:53:24.612Z,100909.84
2023-03-17T15:55:52.319Z,100913.09
2023-03-17T15:58:20.125Z,100902.50
2023-03-17T16:00:52.618Z,100905.44
2023-03-17T16:03:31.893Z,100908.88
2023-03-17T16:06:00.846Z,100913.63
2023-03-17T16:08:28.492Z,100911.47
2023-03-17T16:10:55.891Z,100916.34
2023-03-17T16:13:23.306Z,100921.63
2023-03-17T16:15:55.286Z,100928.91
2023-03-17T16:18:34.890Z,100918.63
2023-03-17T16:21:03.151Z,100927.69
2023-03-17T16:23:32.689Z,100926.00
2023-03-17T16:26:13.809Z,100931.47
2023-03-17T16:28:43.125Z,100923.94
2023-03-17T16:31:20.768Z,100930.56
2023-03-17T16:33:48.658Z,100934.69
2023-03-17T16:36:18.454Z,100950.41
2023-03-17T16:38:46.512Z,100934.94
2023-03-17T16:41:23.103Z,100943.03
2023-03-17T16:43:58.901Z,100940.88
2023-03-17T16:46:27.933Z,100940.19
2023-03-17T16:48:55.364Z,100936.41
2023-03-17T16:51:23.276Z,100940.88
2023-03-17T16:53:50.706Z,100938.78
2023-03-17T16:56:20.874Z,100937.25
2023-03-17T16:58:49.118Z,100934.28
2023-03-17T17:01:22.724Z,100935.41
2023-03-17T17:03:50.573Z,100935.00
2023-03-17T17:06:19.428Z,100941.38
2023-03-17T17:08:47.965Z,100940.09
2023-03-17T17:11:16.977Z,100935.75
2023-03-17T17:13:46.851Z,100942.06
2023-03-17T17:16:17.056Z,100933.00
2023-03-17T17:18:44.430Z,100934.03
2023-03-17T17:21:12.866Z,100943.13
2023-03-17T17:23:40.315Z,100945.47
2023-03-17T17:26:08.118Z,100942.03
2023-03-17T17:28:35.545Z,100948.31
2023-03-17T17:31:02.935Z,100947.00
2023-03-17T17:33:30.286Z,100945.50
2023-03-17T17:35:57.920Z,100943.13
2023-03-17T17:38:28.099Z,100946.47
2023-03-17T17:40:57.690Z,100941.66
2023-03-17T17:43:25.648Z,100952.41
2023-03-17T17:45:53.515Z,100950.59
2023-03-17T17:48:23.734Z,100949.16
2023-03-17T17:50:53.244Z,100952.34
2023-03-17T17:53:21.868Z,100958.34
2023-03-17T17:55:50.322Z,100958.59
2023-03-17T17:58:20.692Z,100962.06
2023-03-17T18:00:48.439Z,100963.09
2023-03-17T18:03:15.971Z,100963.44
2023-03-17T18:05:43.362Z,100964.97
2023-03-17T18:08:14.420Z,100955.09
2023-03-17T18:10:42.132Z,100956.41
2023-03-17T18:13:09.622Z,100965.06
2023-03-17T18:15:37.382Z,100966.47
2023-03-17T18:18:05.541Z,100961.63
2023-03-17T18:20:33.739Z,100960.91
2023-03-17T18:23:01.652Z,100963.13
2023-03-17T18:25:29.052Z,100957.25
2023-03-17T18:27:56.415Z,100958.59
2023-03-17T18:30:27.821Z,100956.06
2023-03-17T18:33:02.367Z,100968.31
2023-03-17T18:35:30.264Z,100959.25
2023-03-17T18:37:58.572Z,100961.38
2023-03-17T18:40:28.902Z,100957.00
2023-03-17T18:42:56.280Z,100967.88
2023-03-17T18:45:23.770Z,100969.50
2023-03-17T18:47:51.468Z,100970.16
2023-03-17T18:50:20.088Z,100968.81
2023-03-17T18:52:47.933Z,100971.22
2023-03-17T18:55:18.615Z,100968.91
2023-03-17T18:57:46.903Z,100969.63
2023-03-17T19:00:16.272Z,100973.66
2023-03-17T19:02:43.698Z,100969.25
2023-03-17T19:05:12.002Z,100969.72
2023-03-17T19:07:40.417Z,100962.56
2023-03-17T19:10:09.934Z,100958.72
2023-03-17T19:12:37.644Z,100963.22
2023-03-17T19:15:07.292Z,100965.56
2023-03-17T19:17:35.290Z,100957.00
2023-03-17T19:20:02.933Z,100965.09
2023-03-17T19:22:30.834Z,100960.34
2023-03-17T19:24:58.624Z,100954.91
2023-03-17T19:27:26.240Z,100961.97
2023-03-17T19:29:53.676Z,100956.53
2023-03-17T19:32:20.968Z,100959.75
2023-03-17T19:34:51.103Z,100958.63
2023-03-17T19:37:18.394Z,100957.56
2023-03-17T19:39:45.744Z,100955.63
2023-03-17T19:42:16.248Z,100967.50
2023-03-17T19:45:01.675Z,100949.72
2023-03-17T19:47:31.509Z,100949.81
2023-03-17T19:49:59.135Z,100962.09
2023-03-17T19:52:26.841Z,100959.66
2023-03-17T19:54:54.256Z,100960.25
2023-03-17T19:57:21.646Z,100955.03
2023-03-17T19:59:49.091Z,100958.13
2023-03-17T20:02:17.230Z,100957.56
2023-03-17T20:04:44.937Z,100960.34
2023-03-17T20:07:13.105Z,100963.91
2023-03-17T20:09:40.549Z,100970.06
2023-03-17T20:12:08.272Z,100961.97
2023-03-17T20:14:36.302Z,100961.25
2023-03-17T20:17:04.062Z,100962.03
2023-03-17T20:19:31.719Z,100960.44
2023-03-17T20:22:01.316Z,100952.88
2023-03-17T20:24:28.659Z,100954.03
2023-03-17T20:26:55.970Z,100955.63
2023-03-17T20:29:23.701Z,100962.69
2023-03-17T20:31:51.559Z,100965.75
2023-03-17T20:34:19.000Z,100955.72
2023-03-17T20:36:46.410Z,100967.75
2023-03-17T20:39:14.389Z,100960.44
2023-03-17T20:41:42.588Z,100963.53
2023-03-17T20:44:10.682Z,100966.63
2023-03-17T20:46:38.271Z,100967.56
2023-03-17T20:49:06.145Z,100958.34
2023-03-17T20:51:33.771Z,100960.53
2023-03-17T20:54:01.761Z,100967.94
2023-03-17T20:56:30.203Z,100964.94
2023-03-17T20:58:57.517Z,100959.19
2023-03-17T21:01:25.139Z,100961.25
2023-03-17T21:03:52.829Z,100966.78
2023-03-17T21:06:20.501Z,100964.94
2023-03-17T21:08:47.819Z,100969.91
2023-03-17T21:11:18.070Z,100970.75
2023-03-17T21:13:46.194Z,100961.97
2023-03-17T21:16:19.597Z,100950.91
2023-03-17T21:18:47.321Z,100946.41
2023-03-17T21:34:23.760Z,100946.94
2023-03-17T21:36:54.509Z,100940.47
2023-03-17T21:39:21.887Z,100933.66
2023-03-17T21:41:49.780Z,100934.97
2023-03-17T21:44:18.180Z,100929.44
2023-03-17T21:46:49.715Z,100931.75
2023-03-17T21:49:18.227Z,100934.09
2023-03-17T21:51:47.214Z,100929.56
2023-03-17T21:54:15.893Z,100924.47
2023-03-17T21:56:43.894Z,100923.44
2023-03-17T21:59:17.741Z,100919.16
2023-03-17T22:01:45.689Z,100918.50
2023-03-17T22:04:16.386Z,100918.94
2023-03-17T22:06:46.484Z,100921.09
2023-03-17T22:09:14.390Z,100913.56
2023-03-17T22:11:42.127Z,100907.09
2023-03-17T22:14:13.079Z,100911.91
2023-03-17T22:16:47.418Z,100912.28
2023-03-17T22:19:21.131Z,100909.94
2023-03-17T22:21:50.002Z,100911.00
2023-03-17T22:24:19.848Z,100908.72
2023-03-17T22:26:47.912Z,100913.13
2023-03-17T22:29:18.856Z,100903.84
2023-03-17T22:31:52.730Z,100909.22
2023-03-17T22:34:21.542Z,100910.59
2023-03-17T22:36:51.804Z,100913.50
2023-03-17T22:39:25.312Z,100909.63
2023-03-17T22:41:55.684Z,100904.53
2023-03-17T22:44:24.295Z,100901.06
2023-03-17T22:46:51.642Z,100897.59
2023-03-17T22:49:20.732Z,100894.16
2023-03-17T22:51:50.752Z,100895.97
2023-03-17T22:54:18.089Z,100899.59
2023-03-17T22:56:45.883Z,100895.16
2023-03-17T22:59:26.393Z,100883.84
2023-03-17T23:01:59.701Z,100894.94
2023-03-17T23:04:30.601Z,100895.03
2023-03-17T23:07:05.652Z,100888.09
2023-03-17T23:09:33.573Z,100885.78
2023-03-17T23:12:05.490Z,100884.28
2023-03-17T23:14:35.491Z,100882.09
2023-03-17T23:17:04.900Z,100886.69
2023-03-17T23:19:32.316Z,100884.84
2023-03-17T23:22:03.183Z,100888.44
2023-03-17T23:24:33.784Z,100879.88
2023-03-17T23:27:05.176Z,100877.94
2023-03-17T23:29:40.504Z,100879.97
2023-03-17T23:32:08.429Z,100873.53
2023-03-17T23:34:39.043Z,100881.13
2023-03-17T23:37:06.756Z,100878.34
2023-03-17T23:39:37.311Z,100863.97
2023-03-17T23:42:07.297Z,100865.91
2023-03-17T23:44:34.907Z,100873.59
2023-03-17T23:47:02.721Z,100879.00
2023-03-17T23:49:30.742Z,100875.81
2023-03-17T23:51:58.160Z,100880.06
2023-03-17T23:54:25.544Z,100874.13
2023-03-17T23:56:58.878Z,100871.00
2023-03-17T23:59:29.410Z,100869.38
